Time;durP1;ratioP1;P1;durP2;ratioP2;P2;SDS_P1;SDS_P2;PMS_P1;PMS_P2;Temp;Humidity;BMP_temperature;BMP_pressure;BME280_temperature;BME280_humidity;BME280_pressure;Samples;Min_cycle;Max_cycle;Signal;HPM_P1;HPM_P2
2022/06/20 00:00:23;;;;;;;0.40;0.40;;;22.90;62.80;;;23.49;45.89;94381.25;5035737;28;20224;-78
2022/06/20 00:02:54;;;;;;;0.50;0.50;;;22.80;62.70;;;23.45;46.21;94378.34;5052776;28;20657;-78
2022/06/20 00:05:30;;;;;;;0.30;0.30;;;22.70;62.80;;;23.42;46.22;94378.13;5066364;28;20583;-77
2022/06/20 00:07:58;;;;;;;0.40;0.40;;;22.70;63.10;;;23.39;45.83;94379.50;5052318;28;20199;-78
2022/06/20 00:10:28;;;;;;;0.40;0.40;;;22.70;62.80;;;23.37;46.55;94386.22;5038687;28;20219;-77
2022/06/20 00:12:56;;;;;;;0.50;0.50;;;22.60;62.90;;;23.32;46.57;94369.13;5035483;28;20264;-78
2022/06/20 00:15:34;;;;;;;0.50;0.50;;;22.70;62.90;;;23.27;46.65;94371.09;5052187;28;20238;-78
2022/06/20 00:18:06;;;;;;;0.40;0.40;;;22.60;63.30;;;23.23;46.76;94370.03;5068134;28;20248;-78
2022/06/20 00:20:39;;;;;;;0.40;0.40;;;22.60;63.30;;;23.18;46.75;94371.69;5036502;28;20222;-78
2022/06/20 00:23:07;;;;;;;0.40;0.40;;;22.50;63.00;;;23.15;46.59;94363.41;5052334;28;20210;-78
2022/06/20 00:25:36;;;;;;;0.40;0.40;;;22.50;63.20;;;23.13;46.60;94368.25;5050584;28;20227;-77
2022/06/20 00:28:04;;;;;;;0.30;0.30;;;22.40;63.30;;;23.07;46.72;94362.19;5068789;28;20205;-78
2022/06/20 00:30:32;;;;;;;0.40;0.40;;;22.40;63.20;;;23.00;46.92;94354.47;5035450;28;20219;-78
2022/06/20 00:32:59;;;;;;;0.40;0.40;;;22.40;63.30;;;22.96;46.83;94358.81;5052602;28;20209;-78
2022/06/20 00:35:27;;;;;;;0.40;0.40;;;22.30;63.40;;;22.94;47.35;94362.84;5064512;28;20226;-77
2022/06/20 00:37:58;;;;;;;0.47;0.47;;;22.30;63.50;;;22.89;47.40;94366.38;5036944;28;20198;-78
2022/06/20 00:40:41;;;;;;;0.40;0.40;;;22.30;63.90;;;22.85;47.39;94365.31;5051753;28;20692;-78
2022/06/20 00:43:16;;;;;;;0.40;0.40;;;22.20;63.90;;;22.80;47.46;94363.53;5066975;28;20287;-78
2022/06/20 00:45:47;;;;;;;0.30;0.30;;;22.20;63.90;;;22.76;47.45;94356.34;5055254;28;20217;-78
2022/06/20 00:48:32;;;;;;;0.30;0.30;;;22.10;63.70;;;22.70;47.02;94353.72;5089498;28;20200;-78
2022/06/20 00:51:06;;;;;;;0.40;0.40;;;22.10;64.00;;;22.65;47.44;94352.97;5055305;28;20729;-78
2022/06/20 00:53:42;;;;;;;0.50;0.50;;;22.10;64.00;;;22.58;47.35;94345.25;5040539;28;20637;-78
2022/06/20 00:56:43;;;;;;;0.50;0.50;;;22.00;64.10;;;22.55;47.94;94341.28;5053820;28;20225;-78
2022/06/20 00:59:14;;;;;;;0.40;0.40;;;21.90;64.20;;;22.50;47.51;94335.19;5036351;28;20322;-78
2022/06/20 01:01:42;;;;;;;0.40;0.40;;;21.90;64.20;;;22.45;47.96;94330.69;5020663;28;20210;-78
2022/06/20 01:04:21;;;;;;;0.38;0.38;;;21.90;64.10;;;22.42;48.19;94327.78;5033538;28;20204;-78
2022/06/20 01:06:56;;;;;;;0.40;0.40;;;21.90;65.00;;;22.37;48.03;94320.56;5022052;28;20619;-78
2022/06/20 01:09:29;;;;;;;0.40;0.40;;;21.80;64.70;;;22.33;48.00;94322.22;5024054;28;20273;-77
2022/06/20 01:12:02;;;;;;;0.43;0.43;;;21.70;64.40;;;22.27;48.02;94321.47;5039386;28;20273;-78
2022/06/20 01:14:37;;;;;;;0.40;0.40;;;21.70;64.50;;;22.22;48.37;94321.50;5037407;28;20236;-78
2022/06/20 01:17:15;;;;;;;0.30;0.30;;;21.60;64.70;;;22.17;48.56;94325.00;5048244;28;20201;-78
2022/06/20 01:20:18;;;;;;;0.40;0.40;;;21.70;64.80;;;22.08;48.32;94324.00;5051716;28;20237;-78
2022/06/20 01:23:30;;;;;;;0.40;0.40;;;21.60;64.80;;;22.02;48.44;94317.91;5025207;28;20207;-78
2022/06/20 01:26:31;;;;;;;0.40;0.40;;;21.50;64.60;;;21.93;48.15;94314.25;5036692;28;20226;-78
2022/06/20 01:29:04;;;;;;;0.47;0.47;;;21.50;64.70;;;21.89;48.76;94310.53;5021438;28;20294;-78
2022/06/20 01:31:39;;;;;;;0.40;0.40;;;21.40;64.70;;;21.87;48.64;94318.03;5034761;28;20246;-78
2022/06/20 01:34:08;;;;;;;0.30;0.30;;;21.30;64.50;;;21.82;48.71;94318.84;5034926;28;20544;-77
2022/06/20 01:39:26;;;;;;;0.38;0.38;;;21.30;64.50;;;21.75;48.88;94318.34;5053095;28;20684;-78
2022/06/20 01:44:43;;;;;;;0.35;0.35;;;21.20;64.40;;;21.67;48.68;94325.09;5054401;28;20264;-77
2022/06/20 01:47:11;;;;;;;0.40;0.40;;;21.10;64.50;;;21.66;48.74;94331.50;5051168;28;20193;-78
2022/06/20 01:49:42;;;;;;;0.40;0.40;;;21.10;64.40;;;21.63;48.95;94323.25;5051181;28;20216;-78
2022/06/20 01:52:41;;;;;;;0.40;0.40;;;21.10;64.70;;;21.58;49.06;94324.88;5047384;28;20200;-78
2022/06/20 01:55:20;;;;;;;0.50;0.50;;;21.00;64.80;;;21.57;49.40;94317.94;5034511;28;20214;-78
2022/06/20 01:57:52;;;;;;;0.40;0.40;;;21.00;65.10;;;21.55;49.50;94316.59;5051088;28;20281;-78
2022/06/20 02:00:23;;;;;;;0.40;0.40;;;21.00;65.10;;;21.52;49.38;94315.28;5034060;28;20596;-78
2022/06/20 02:03:04;;;;;;;0.40;0.40;;;21.00;65.00;;;21.49;49.50;94310.47;5070984;28;20190;-77
2022/06/20 02:05:32;;;;;;;0.40;0.40;;;21.00;65.40;;;21.46;48.96;94313.72;5068361;28;20233;-78
2022/06/20 02:08:07;;;;;;;0.50;0.50;;;20.90;64.90;;;21.43;49.18;94307.06;5069316;28;20657;-77
2022/06/20 02:10:50;;;;;;;0.40;0.40;;;20.90;65.40;;;21.39;49.64;94319.34;5049823;28;20222;-78
2022/06/20 02:13:19;;;;;;;0.40;0.40;;;20.90;65.40;;;21.35;49.28;94314.81;5041577;28;20230;-78
2022/06/20 02:15:50;;;;;;;0.40;0.40;;;20.90;65.00;;;21.32;49.79;94316.16;5054140;28;20309;-78
2022/06/20 02:18:18;;;;;;;0.40;0.40;;;20.80;65.30;;;21.27;49.73;94313.53;5049577;28;20665;-77
2022/06/20 02:20:49;;;;;;;0.40;0.40;;;20.80;65.30;;;21.25;49.66;94311.16;5062921;28;20700;-78
2022/06/20 02:23:25;;;;;;;0.30;0.30;;;20.70;65.50;;;21.20;49.62;94305.84;5056647;28;20201;-78
2022/06/20 02:25:54;;;;;;;0.45;0.45;;;20.80;65.80;;;21.19;49.93;94301.56;5070579;28;20718;-78
2022/06/20 02:28:33;;;;;;;0.40;0.40;;;20.70;65.50;;;21.18;49.78;94309.81;5072395;28;20214;-78
2022/06/20 02:31:00;;;;;;;0.40;0.40;;;20.70;65.90;;;21.16;49.78;94312.78;5050599;28;20246;-77
2022/06/20 02:33:29;;;;;;;0.40;0.40;;;20.70;65.50;;;21.16;49.68;94319.97;5042173;28;20218;-78
2022/06/20 02:35:58;;;;;;;0.40;0.40;;;20.60;65.70;;;21.13;50.15;94315.19;5054091;28;20550;-78
2022/06/20 02:38:26;;;;;;;0.40;0.40;;;20.60;65.60;;;21.09;49.97;94323.75;5055236;28;20596;-77
2022/06/20 02:40:56;;;;;;;0.60;0.60;;;20.60;65.60;;;21.06;50.66;94318.94;5051078;28;20763;-78
2022/06/20 02:43:48;;;;;;;0.40;0.40;;;20.60;65.90;;;21.02;49.72;94319.75;5070648;28;20552;-78
2022/06/20 02:46:19;;;;;;;0.40;0.40;;;20.50;65.90;;;20.99;50.39;94315.78;5068870;28;20219;-78
2022/06/20 02:48:49;;;;;;;0.40;0.40;;;20.50;66.00;;;20.97;50.10;94315.25;5070382;28;20198;-77
2022/06/20 02:51:23;;;;;;;0.50;0.50;;;20.40;65.90;;;20.94;50.27;94318.47;5067871;28;20292;-78
2022/06/20 02:54:01;;;;;;;0.43;0.43;;;20.40;66.00;;;20.94;50.73;94318.47;5054252;28;20253;-78
2022/06/20 02:56:36;;;;;;;0.30;0.30;;;20.50;66.50;;;20.91;50.58;94313.66;5076629;28;20257;-78
2022/06/20 02:59:14;;;;;;;0.40;0.40;;;20.40;66.30;;;20.88;50.54;94317.66;5063033;28;20294;-78
2022/06/20 03:02:02;;;;;;;0.40;0.40;;;20.40;67.00;;;20.88;50.27;94314.22;5050062;28;20206;-78
2022/06/20 03:04:36;;;;;;;0.40;0.40;;;20.40;66.40;;;20.84;50.27;94315.84;5054870;28;20321;-78
2022/06/20 03:07:26;;;;;;;0.40;0.40;;;20.30;66.20;;;20.79;50.08;94313.97;5054375;28;20647;-78
2022/06/20 03:10:14;;;;;;;0.40;0.40;;;20.30;66.20;;;20.78;50.36;94313.16;5054671;28;20786;-78
2022/06/20 03:12:42;;;;;;;0.40;0.40;;;20.30;66.40;;;20.75;50.26;94313.72;5042514;28;20215;-78
2022/06/20 03:15:11;;;;;;;0.40;0.40;;;20.20;65.90;;;20.76;50.69;94307.31;5060119;28;20215;-78
2022/06/20 03:17:40;;;;;;;0.40;0.40;;;20.30;66.20;;;20.75;50.73;94313.72;5042644;28;20732;-78
2022/06/20 03:20:13;;;;;;;0.40;0.40;;;20.20;66.20;;;20.74;50.55;94306.78;5038748;28;20223;-78
2022/06/20 03:22:54;;;;;;;0.40;0.40;;;20.20;66.40;;;20.74;50.92;94306.00;5062170;28;20223;-77
2022/06/20 03:25:22;;;;;;;0.40;0.40;;;20.20;66.70;;;20.74;51.13;94308.66;5043062;28;20242;-78
2022/06/20 03:27:53;;;;;;;0.45;0.45;;;20.20;66.30;;;20.76;50.50;94307.31;5066665;28;20195;-78
2022/06/20 03:30:32;;;;;;;0.40;0.40;;;20.20;66.40;;;20.75;51.21;94305.72;5069350;28;20251;-77
2022/06/20 03:33:05;;;;;;;0.40;0.40;;;20.30;66.80;;;20.76;51.39;94304.66;5072286;28;20261;-78
2022/06/20 03:35:33;;;;;;;0.40;0.40;;;20.20;66.60;;;20.77;51.23;94305.44;5070147;28;20214;-77
2022/06/20 03:38:04;;;;;;;0.40;0.40;;;20.20;66.50;;;20.78;51.11;94313.16;5065049;28;20195;-78
2022/06/20 03:40:33;;;;;;;0.40;0.40;;;20.30;66.80;;;20.79;50.99;94304.09;5076233;28;20210;-77
2022/06/20 03:43:01;;;;;;;0.40;0.40;;;20.20;66.70;;;20.83;51.10;94300.91;5060172;28;20656;-77
2022/06/20 03:45:33;;;;;;;0.40;0.40;;;20.30;66.70;;;20.83;51.17;94299.03;5040169;28;21829;-77
2022/06/20 03:48:10;;;;;;;0.60;0.60;;;20.30;66.90;;;20.87;51.73;94302.75;5044522;28;20675;-78
2022/06/20 03:50:56;;;;;;;0.40;0.40;;;20.30;67.20;;;20.88;51.55;94309.66;5052741;28;20279;-77
2022/06/20 03:53:55;;;;;;;0.40;0.40;;;20.40;67.20;;;20.91;51.05;94308.31;5041591;28;20203;-78
2022/06/20 03:56:48;;;;;;;0.40;0.40;;;20.40;67.00;;;20.92;50.95;94310.75;5048529;28;20226;-78
2022/06/20 03:59:42;;;;;;;0.40;0.40;;;20.40;67.10;;;20.95;51.10;94315.50;5044450;28;20203;-77
2022/06/20 04:02:25;;;;;;;0.40;0.40;;;20.40;67.10;;;20.95;51.10;94312.84;5053548;28;20215;-79
2022/06/20 04:05:00;;;;;;;0.40;0.40;;;20.50;66.90;;;20.98;51.77;94311.50;5070364;28;20643;-78
2022/06/20 04:07:45;;;;;;;0.40;0.40;;;20.50;66.90;;;21.01;51.34;94312.84;5051907;28;20732;-79
2022/06/20 04:11:00;;;;;;;0.50;0.50;;;20.50;67.20;;;21.03;51.03;94311.50;5050055;28;20230;-79
2022/06/20 04:14:04;;;;;;;0.40;0.40;;;20.50;67.10;;;21.06;51.58;94323.50;5035135;28;20596;-77
2022/06/20 04:16:43;;;;;;;0.40;0.40;;;20.60;67.50;;;21.06;51.45;94315.50;5062479;28;21860;-78
2022/06/20 04:19:27;;;;;;;0.50;0.50;;;20.60;67.60;;;21.15;51.57;94327.16;5070454;28;20210;-78
2022/06/20 04:22:02;;;;;;;0.40;0.40;;;20.60;67.50;;;21.20;51.74;94321.84;5066674;28;20199;-79
2022/06/20 04:24:56;;;;;;;0.40;0.40;;;20.70;67.60;;;21.24;51.68;94311.44;5051906;28;20288;-79
2022/06/20 04:27:45;;;;;;;0.40;0.40;;;20.80;67.60;;;21.32;51.82;94318.03;5052207;28;20203;-79
2022/06/20 04:30:34;;;;;;;0.50;0.50;;;20.80;67.60;;;21.40;51.54;94322.81;5035742;28;20492;-79
2022/06/20 04:33:13;;;;;;;0.50;0.50;;;20.90;67.60;;;21.48;52.23;94318.75;5051955;28;20210;-78
2022/06/20 04:36:00;;;;;;;0.38;0.38;;;21.00;67.70;;;21.52;52.18;94331.28;5067807;28;20350;-78
2022/06/20 04:38:36;;;;;;;0.40;0.40;;;21.10;67.70;;;21.60;51.77;94321.94;5051995;28;20210;-79
2022/06/20 04:41:17;;;;;;;0.40;0.40;;;21.10;67.60;;;21.66;51.78;94322.69;5037511;28;20297;-78
2022/06/20 04:43:56;;;;;;;0.40;0.40;;;21.20;67.70;;;21.74;51.89;94319.47;5033078;28;20338;-79
2022/06/20 04:46:33;;;;;;;0.38;0.38;;;21.30;67.70;;;21.81;52.20;94324.47;5047887;28;20227;-80
2022/06/20 04:49:00;;;;;;;0.40;0.40;;;21.30;67.60;;;21.88;51.97;94330.31;5050824;28;20287;-77
2022/06/20 04:51:35;;;;;;;0.40;0.40;;;21.40;67.20;;;21.93;51.97;94326.81;5071171;28;20679;-79
2022/06/20 04:54:05;;;;;;;0.40;0.40;;;21.50;67.60;;;22.01;51.45;94328.88;5055069;28;20208;-79
2022/06/20 04:56:32;;;;;;;0.40;0.40;;;21.50;67.30;;;22.05;51.89;94322.69;5053078;28;20327;-79
2022/06/20 04:59:06;;;;;;;0.50;0.50;;;21.60;67.20;;;22.13;51.57;94325.84;5054645;28;20282;-79
2022/06/20 05:01:36;;;;;;;0.30;0.30;;;21.60;67.50;;;22.20;51.50;94329.81;5055414;28;20400;-79
2022/06/20 05:04:15;;;;;;;0.40;0.40;;;21.70;67.30;;;22.26;51.81;94329.75;5088205;28;20203;-79
2022/06/20 05:06:43;;;;;;;0.30;0.30;;;21.80;67.40;;;22.30;51.48;94323.59;5055638;28;20302;-79
2022/06/20 05:09:19;;;;;;;0.30;0.30;;;21.80;67.10;;;22.37;51.57;94326.72;5071621;28;20204;-79
2022/06/20 05:11:52;;;;;;;0.40;0.40;;;21.90;67.30;;;22.42;51.54;94320.56;5087739;28;20653;-79
2022/06/20 05:14:34;;;;;;;0.40;0.40;;;22.00;67.10;;;22.48;51.90;94319.44;5054619;28;20208;-79
2022/06/20 05:17:07;;;;;;;0.30;0.30;;;22.00;67.30;;;22.55;51.36;94313.75;5071302;28;20195;-79
2022/06/20 05:19:41;;;;;;;0.43;0.43;;;22.10;67.10;;;22.62;51.55;94310.75;5054583;28;20221;-78
2022/06/20 05:22:15;;;;;;;0.20;0.20;;;22.20;67.00;;;22.69;51.64;94308.53;5054597;28;20197;-79
2022/06/20 05:24:44;;;;;;;0.60;0.60;;;22.30;67.00;;;22.75;51.25;94302.06;5072359;28;20225;-79
2022/06/20 05:27:25;;;;;;;0.30;0.30;;;22.40;66.90;;;22.82;51.64;94307.09;5091270;28;20194;-79
2022/06/20 05:29:56;;;;;;;0.40;0.40;;;22.40;66.90;;;22.90;51.57;94306.47;5057982;28;20225;-78
2022/06/20 05:32:58;;;;;;;0.40;0.40;;;22.50;66.80;;;22.92;51.37;94298.94;5074552;28;20683;-79
2022/06/20 05:35:39;;;;;;;0.50;0.50;;;22.60;66.90;;;23.04;51.70;94309.25;5057933;28;20225;-79
2022/06/20 05:38:34;;;;;;;0.40;0.40;;;22.70;66.90;;;23.12;51.74;94318.50;5074385;28;20263;-79
2022/06/20 05:41:04;;;;;;;0.40;0.40;;;22.70;66.90;;;23.20;51.35;94309.09;5067855;28;20316;-79
2022/06/20 05:43:32;;;;;;;0.30;0.30;;;22.80;66.80;;;23.27;51.24;94306.88;5091226;28;20198;-79
2022/06/20 05:46:11;;;;;;;0.40;0.40;;;22.90;67.00;;;23.35;51.33;94300.84;5052631;28;20242;-78
2022/06/20 05:48:56;;;;;;;0.40;0.40;;;22.90;66.90;;;23.43;51.36;94313.59;5054768;28;20255;-79
2022/06/20 05:51:26;;;;;;;0.63;0.63;;;23.00;66.40;;;23.43;50.68;94296.75;5074884;28;20217;-80
2022/06/20 05:53:58;;;;;;;0.30;0.30;;;23.10;66.00;;;23.49;50.91;94296.38;5060039;28;20199;-79
2022/06/20 05:56:37;;;;;;;0.40;0.40;;;23.20;66.00;;;23.56;51.22;94284.53;5071457;28;20708;-79
2022/06/20 05:59:05;;;;;;;0.47;0.47;;;23.20;66.10;;;23.63;51.00;94287.63;5062139;28;20285;-79
2022/06/20 06:01:38;;;;;;;0.30;0.30;;;23.30;66.10;;;23.69;50.94;94286.47;5060177;28;20722;-79
2022/06/20 06:04:35;;;;;;;0.40;0.40;;;23.40;66.10;;;23.74;50.84;94282.94;5087172;28;20632;-79
2022/06/20 06:07:18;;;;;;;0.50;0.50;;;23.50;66.30;;;23.81;50.67;94276.16;5076160;28;20190;-80
2022/06/20 06:09:59;;;;;;;0.30;0.30;;;23.50;66.20;;;23.87;50.76;94276.84;5090699;28;20209;-80
2022/06/20 06:12:50;;;;;;;0.40;0.40;;;23.60;66.30;;;23.91;50.34;94277.06;5072631;28;20197;-80
2022/06/20 06:18:42;;;;;;;0.30;0.30;;;23.70;66.40;;;24.07;50.80;94283.00;5104502;28;20205;-80
2022/06/20 06:21:09;;;;;;;0.40;0.40;;;23.80;66.50;;;24.16;50.54;94277.75;5089260;28;20209;-80
2022/06/20 06:23:38;;;;;;;0.43;0.43;;;23.90;66.50;;;24.24;50.44;94277.09;5073633;28;20229;-80
2022/06/20 06:26:05;;;;;;;0.20;0.20;;;23.90;66.50;;;24.32;50.27;94276.41;5060261;28;20317;-80
2022/06/20 06:28:32;;;;;;;0.30;0.30;;;24.00;66.50;;;24.40;50.54;94273.06;5078022;28;20201;-80
2022/06/20 06:31:12;;;;;;;0.40;0.40;;;24.00;66.40;;;24.50;50.76;94272.09;5071524;28;20217;-79
2022/06/20 06:33:51;;;;;;;0.40;0.40;;;24.10;66.30;;;24.59;50.12;94270.31;5071860;28;20217;-79
2022/06/20 06:36:28;;;;;;;0.30;0.30;;;24.30;66.20;;;24.64;50.28;94261.38;5076548;28;20226;-80
2022/06/20 06:39:32;;;;;;;0.30;0.30;;;24.30;66.30;;;24.75;50.39;94259.31;5093575;28;20212;-79
2022/06/20 06:42:04;;;;;;;0.30;0.30;;;24.40;66.10;;;24.86;50.27;94260.72;5061289;28;20202;-79
2022/06/20 06:44:43;;;;;;;0.20;0.20;;;24.50;66.00;;;24.96;49.95;94250.88;5077566;28;20600;-79
2022/06/20 06:47:46;;;;;;;0.40;0.40;;;24.60;66.80;;;25.03;49.98;94262.00;5077785;28;20205;-79
2022/06/20 06:51:06;;;;;;;0.30;0.30;;;24.70;65.70;;;25.14;50.06;94260.69;5076841;28;20287;-79
2022/06/20 06:53:43;;;;;;;0.30;0.30;;;24.90;66.00;;;25.26;50.14;94252.16;5075947;28;20207;-80
2022/06/20 06:56:31;;;;;;;0.20;0.20;;;24.90;65.90;;;25.37;49.67;94258.91;5077419;28;20226;-80
2022/06/20 06:59:11;;;;;;;0.30;0.30;;;25.00;65.80;;;25.51;49.86;94261.56;5094389;28;20241;-80
2022/06/20 07:01:46;;;;;;;0.50;0.50;;;25.10;65.90;;;25.63;49.77;94252.19;5061131;28;20236;-80
2022/06/20 07:04:31;;;;;;;0.30;0.30;;;25.20;65.80;;;25.75;49.61;94248.97;5094221;28;20274;-79
2022/06/20 07:07:25;;;;;;;0.30;0.30;;;25.50;65.90;;;25.88;49.62;94240.84;5077367;28;20211;-80
2022/06/20 07:09:54;;;;;;;0.30;0.30;;;25.50;65.60;;;26.02;49.59;94248.84;5077347;28;20220;-79
2022/06/20 07:12:48;;;;;;;0.38;0.38;;;25.60;65.50;;;26.16;48.92;94253.41;5077528;28;20203;-80
2022/06/20 07:15:20;;;;;;;0.30;0.30;;;25.80;65.40;;;26.26;49.11;94252.34;5061311;28;20236;-79
2022/06/20 07:18:41;;;;;;;0.50;0.50;;;25.90;66.00;;;26.41;49.15;94259.22;5093435;28;20614;-80
2022/06/20 07:21:19;;;;;;;0.30;0.30;;;26.00;65.10;;;26.53;48.79;94262.91;5074435;28;20229;-78
2022/06/20 07:23:54;;;;;;;0.20;0.20;;;26.10;65.00;;;26.66;48.74;94255.06;5063443;28;20659;-80
2022/06/20 07:26:24;;;;;;;0.30;0.30;;;26.30;65.00;;;26.77;48.46;94251.03;5052887;28;20217;-79
2022/06/20 07:29:20;;;;;;;0.30;0.30;;;26.40;64.80;;;26.90;48.69;94253.91;5055971;28;20782;-80
2022/06/20 07:31:53;;;;;;;0.30;0.30;;;26.50;64.80;;;27.05;48.51;94258.88;5051134;28;20206;-79
2022/06/20 07:34:35;;;;;;;0.30;0.30;;;26.60;64.50;;;27.21;48.65;94261.91;5035706;28;20288;-79
2022/06/20 07:37:34;;;;;;;0.40;0.40;;;26.80;64.60;;;27.39;48.26;94257.38;5037354;28;20215;-80
2022/06/20 07:40:12;;;;;;;0.40;0.40;;;26.90;64.40;;;27.57;48.17;94255.47;5035576;28;20615;-80
2022/06/20 07:42:52;;;;;;;0.30;0.30;;;27.10;64.20;;;27.74;47.99;94254.69;5051539;28;20229;-79
2022/06/20 07:45:35;;;;;;;0.20;0.20;;;27.30;64.30;;;27.89;47.54;94239.16;5053192;28;20260;-79
2022/06/20 07:48:11;;;;;;;0.20;0.20;;;27.50;63.90;;;28.02;47.77;94240.13;5053109;28;20189;-79
2022/06/20 07:51:15;;;;;;;0.35;0.35;;;27.60;64.10;;;28.15;47.42;94230.28;5040818;28;20246;-80
2022/06/20 07:54:23;;;;;;;0.50;0.50;;;27.80;63.90;;;28.28;47.48;94224.72;5060353;28;20210;-80
2022/06/20 07:57:13;;;;;;;0.30;0.30;;;27.90;63.80;;;28.39;47.36;94227.03;5055570;28;20258;-79
2022/06/20 08:00:22;;;;;;;0.30;0.30;;;28.10;63.70;;;28.53;47.40;94226.84;5044088;28;20304;-79
2022/06/20 08:03:00;;;;;;;0.30;0.30;;;28.20;63.80;;;28.66;47.93;94216.94;5062979;28;20296;-80
2022/06/20 08:05:36;;;;;;;0.30;0.30;;;28.30;63.60;;;28.78;47.09;94211.69;5067523;28;20631;-81
2022/06/20 08:08:27;;;;;;;0.25;0.25;;;28.40;63.50;;;28.88;47.59;94205.94;5025421;28;20726;-80
2022/06/20 08:11:40;;;;;;;0.30;0.30;;;28.50;63.70;;;29.02;47.57;94207.59;5050832;28;20232;-80
2022/06/20 08:14:34;;;;;;;0.30;0.30;;;28.60;63.70;;;29.14;47.04;94202.28;5055793;28;20220;-80
2022/06/20 08:17:08;;;;;;;0.30;0.30;;;28.80;63.20;;;29.31;47.41;94204.09;5073724;28;20196;-81
2022/06/20 08:19:39;;;;;;;0.20;0.20;;;28.90;63.20;;;29.43;46.83;94203.41;5067832;28;20234;-81
2022/06/20 08:22:25;;;;;;;0.20;0.20;;;29.00;63.20;;;29.58;46.46;94212.81;5052485;28;20200;-81
2022/06/20 08:25:23;;;;;;;0.30;0.30;;;29.10;63.00;;;29.71;46.34;94206.34;5071180;28;20316;-80
2022/06/20 08:28:10;;;;;;;0.30;0.30;;;29.30;62.80;;;29.85;46.47;94207.97;5067889;28;20226;-80
2022/06/20 08:30:50;;;;;;;0.30;0.30;;;29.40;62.60;;;29.97;46.31;94204.56;5055057;28;20318;-80
2022/06/20 08:33:27;;;;;;;0.25;0.25;;;29.50;62.60;;;30.14;46.08;94206.31;5055400;28;20663;-80
2022/06/20 08:36:15;;;;;;;0.30;0.30;;;29.70;62.70;;;30.30;46.28;94209.16;5072132;28;20459;-80
2022/06/20 08:39:13;;;;;;;0.30;0.30;;;29.90;62.60;;;30.48;45.89;94217.84;5040910;28;20203;-81
2022/06/20 08:42:15;;;;;;;0.20;0.20;;;30.00;62.50;;;30.69;46.18;94203.47;5058604;28;20265;-80
2022/06/20 08:45:08;;;;;;;0.38;0.38;;;30.20;62.30;;;30.95;46.12;94198.50;5071295;28;20237;-81
2022/06/20 08:47:50;;;;;;;0.20;0.20;;;30.50;63.40;;;31.22;45.68;94209.00;5052349;28;20699;-81
2022/06/20 08:50:35;;;;;;;0.30;0.30;;;30.70;62.80;;;31.51;45.09;94197.09;5051975;28;20226;-80
2022/06/20 08:53:32;;;;;;;0.30;0.30;;;31.00;62.10;;;31.87;45.55;94184.56;5069049;28;20313;-81
2022/06/20 08:56:49;;;;;;;0.40;0.40;;;31.30;61.70;;;32.27;45.44;94184.84;5049105;28;20224;-80
2022/06/20 08:59:40;;;;;;;0.20;0.20;;;31.60;61.50;;;32.67;44.18;94189.31;5035514;28;20210;-80
2022/06/20 09:02:50;;;;;;;0.30;0.30;;;32.00;61.20;;;33.08;44.25;94191.84;5067883;28;20192;-80
2022/06/20 09:05:39;;;;;;;0.20;0.20;;;32.40;61.10;;;33.40;43.03;94195.28;5032313;28;20229;-80
2022/06/20 09:08:15;;;;;;;0.30;0.30;;;32.80;60.00;;;33.61;42.17;94202.31;5065848;28;20261;-82
2022/06/20 09:11:13;;;;;;;0.30;0.30;;;33.00;58.40;;;33.72;42.43;94233.25;5065423;28;20678;-81
2022/06/20 09:14:16;;;;;;;0.20;0.20;;;33.20;59.20;;;33.63;41.03;94262.56;5056294;28;20667;-80
2022/06/20 09:16:55;;;;;;;0.40;0.40;;;33.30;57.40;;;33.43;40.27;94267.97;5034853;28;20201;-82
2022/06/20 09:20:04;;;;;;;0.30;0.30;;;33.30;56.30;;;33.13;40.49;94259.47;5061357;28;20188;-81
2022/06/20 09:22:49;;;;;;;0.20;0.20;;;33.10;56.70;;;32.87;41.24;94271.69;5067765;28;20209;-82
2022/06/20 09:25:51;;;;;;;0.20;0.20;;;32.80;56.40;;;32.57;41.41;94340.75;5056449;28;20234;-81
2022/06/20 09:28:27;;;;;;;0.30;0.30;;;32.60;56.90;;;32.13;47.27;94385.97;5056943;28;20685;-81
2022/06/20 09:31:24;;;;;;;0.20;0.20;;;32.30;63.00;;;30.50;50.39;94443.75;5067404;28;20465;-80
2022/06/20 09:34:35;;;;;;;0.40;0.40;;;31.60;63.60;;;28.82;52.17;94481.72;5063989;28;20198;-81
2022/06/20 09:37:22;;;;;;;0.40;0.40;;;30.50;66.10;;;27.50;54.12;94467.16;5038743;28;20208;-82
2022/06/20 09:40:21;;;;;;;0.30;0.30;;;29.20;68.20;;;26.69;55.51;94477.72;5052433;28;20772;-81
2022/06/20 09:43:13;;;;;;;0.35;0.35;;;28.20;69.30;;;25.81;56.53;94484.94;5064592;28;20424;-82
2022/06/20 09:46:17;;;;;;;0.30;0.30;;;27.20;72.60;;;25.10;57.39;94526.16;5084271;28;20210;-82
2022/06/20 09:48:55;;;;;;;0.32;0.32;;;26.40;73.70;;;24.55;58.45;94545.47;5033636;28;20667;-82
2022/06/20 09:51:41;;;;;;;0.32;0.32;;;25.60;73.20;;;24.07;59.37;94585.72;5069995;28;20665;-82
2022/06/20 09:55:03;;;;;;;0.30;0.30;;;25.00;74.90;;;23.55;60.21;94602.28;5072206;28;20193;-82
2022/06/20 09:58:10;;;;;;;0.45;0.45;;;24.40;76.50;;;23.14;60.70;94626.66;5063575;28;20198;-81
2022/06/20 10:01:08;;;;;;;0.50;0.50;;;23.80;77.50;;;22.90;61.68;94607.84;5072392;28;20241;-81
2022/06/20 10:03:58;;;;;;;0.50;0.50;;;23.40;77.50;;;22.67;62.35;94632.28;5062116;28;20286;-82
2022/06/20 10:06:32;;;;;;;0.50;0.50;;;23.10;78.50;;;22.44;63.11;94657.78;5028463;28;20232;-81
2022/06/20 10:09:39;;;;;;;0.50;0.50;;;22.70;79.10;;;22.20;63.39;94674.41;5058250;28;20211;-81
2022/06/20 10:12:17;;;;;;;0.40;0.40;;;22.50;80.40;;;22.06;64.60;94670.69;5038783;28;20212;-81
2022/06/20 10:15:20;;;;;;;0.50;0.50;;;22.20;80.10;;;21.91;63.95;94660.84;5062740;28;20225;-81
2022/06/20 10:18:28;;;;;;;0.40;0.40;;;22.10;82.00;;;21.85;64.07;94621.84;5058395;28;20705;-82
2022/06/20 10:21:19;;;;;;;0.50;0.50;;;21.90;82.20;;;21.78;64.78;94582.09;5071422;28;20673;-82
2022/06/20 10:24:04;;;;;;;0.50;0.50;;;21.80;83.00;;;21.75;65.55;94556.75;5038399;28;20225;-81
2022/06/20 10:27:21;;;;;;;0.40;0.40;;;21.60;82.90;;;21.72;65.49;94556.50;5037983;28;20273;-81
2022/06/20 10:30:09;;;;;;;0.30;0.30;;;21.60;84.10;;;21.69;65.62;94551.69;5064919;28;20224;-81
2022/06/20 10:33:11;;;;;;;0.40;0.40;;;21.60;84.00;;;21.66;65.82;94552.22;5038633;28;20200;-82
2022/06/20 10:35:49;;;;;;;0.40;0.40;;;21.50;84.50;;;21.65;66.51;94546.06;5054536;28;20217;-82
2022/06/20 10:38:44;;;;;;;0.55;0.55;;;21.50;84.20;;;21.67;66.44;94551.97;5056086;28;20251;-81
2022/06/20 10:42:14;;;;;;;0.40;0.40;;;21.40;84.70;;;21.67;66.27;94562.63;5052284;28;20284;-82
2022/06/20 10:45:30;;;;;;;0.40;0.40;;;21.40;85.80;;;21.70;66.65;94556.75;5071052;28;20290;-81
2022/06/20 10:48:36;;;;;;;0.40;0.40;;;21.40;85.70;;;21.70;67.03;94570.09;5070761;28;20292;-79
2022/06/20 10:51:41;;;;;;;0.40;0.40;;;21.50;86.50;;;21.71;67.55;94570.91;5078185;28;20685;-81
2022/06/20 10:54:29;;;;;;;0.60;0.60;;;21.50;86.80;;;21.69;68.04;94557.84;5032630;28;20197;-81
2022/06/20 10:57:10;;;;;;;0.40;0.40;;;21.50;86.70;;;21.72;68.50;94527.91;5053830;28;20209;-81
2022/06/20 10:59:55;;;;;;;0.50;0.50;;;21.40;87.20;;;21.81;68.86;94517.47;5053748;28;20221;-80
2022/06/20 11:02:47;;;;;;;0.40;0.40;;;21.50;87.80;;;21.93;69.47;94514.50;5059935;28;20255;-81
2022/06/20 11:05:49;;;;;;;0.38;0.38;;;21.60;88.80;;;22.10;69.84;94546.22;5053896;28;20223;-81
2022/06/20 11:08:43;;;;;;;0.30;0.30;;;21.60;89.60;;;22.26;70.59;94536.25;5070800;28;20222;-80
2022/06/20 11:11:59;;;;;;;0.35;0.35;;;21.80;90.00;;;22.46;70.46;94494.50;5050061;28;20318;-82
2022/06/20 11:15:14;;;;;;;0.38;0.38;;;22.00;90.30;;;22.74;70.75;94489.50;5038487;28;20222;-82
2022/06/20 11:17:59;;;;;;;0.45;0.45;;;22.30;90.70;;;22.99;71.41;94496.53;5074741;28;20211;-80
2022/06/20 11:20:45;;;;;;;0.30;0.30;;;22.50;91.20;;;23.25;71.45;94499.00;5073856;28;20313;-81
2022/06/20 11:24:02;;;;;;;0.30;0.30;;;22.80;91.10;;;23.44;71.38;94488.38;5043065;28;20218;-82
2022/06/20 11:26:50;;;;;;;0.30;0.30;;;23.00;91.00;;;23.66;72.31;94488.66;5072407;28;20246;-81
2022/06/20 11:30:00;;;;;;;0.50;0.50;;;23.30;91.20;;;23.88;71.79;94475.84;5090173;28;20236;-81
2022/06/20 11:32:59;;;;;;;0.38;0.38;;;23.50;91.20;;;24.04;71.76;94466.53;5067778;28;20260;-80
2022/06/20 11:35:43;;;;;;;0.45;0.45;;;23.80;91.20;;;24.23;72.74;94455.03;5073310;28;20508;-81